Nezperce, ID (83543)

5:44 PM PDT on September 01, 2014 (GMT -0700)
ITD Frei Hill ID US | Change Station
CLOSE
Current Station
Personal Weather Station
Location: Ferdinand, ID
Elevation: 3664 ft
Nearby Weather Stations

Elev 3664 ft 46.11 °N, 116.35 °W | Updated 29 minutes ago

Clear
Clear
69 °F
Feels Like 69 °F
N
10
Wind Variable Wind from NW
Gusts 11.0 mph

Today
High -- | Low -- °F
--% Chance of Precip.
Yesterday
High -- | Low -- °F
Precip. -- in
6:05 AM 7:23 PM
Waxing Crescent, 45% visible
Pressure 30.05 in
Visibility 10.0 miles
Clouds Clear
Dew Point 41 °F
Humidity 36%
Rainfall 0.00 in
Snow Depth Not available.
UV 1 out of 12
Pollen 6.70 out of 12
PM2.5 Good
Flu Activity Not available.
METAR KGIC 020035Z AUTO 28004KT 10SM CLR 23/02 A3005 RMK AO1 T02280017

More Conditions Fewer Conditions

Pressure 30.05 in
Visibility 10.0 miles
Clouds Clear
Dew Point 41 °F
Humidity 36%
Rainfall 0.00 in
Snow Depth Not available.
UV 1 out of 12
Pollen 6.70 out of 12
PM2.5 Good
Flu Activity Not available.
METAR KGIC 020035Z AUTO 28004KT 10SM CLR 23/02 A3005 RMK AO1 T02280017

More Conditions Fewer Conditions

10-Day Weather Forecast

Almanac

Astronomy

Sep. 01, 2014 Rise Set
Actual Time 6:05 AM PDT 7:23 PM PDT
Civil Twilight 5:34 AM PDT 7:54 PM PDT
Nautical Twilight 4:57 AM PDT 8:31 PM PDT
Astronomical Twilight 4:17 AM PDT 9:11 PM PDT
Moon 1:18 PM PDT (9/1) 11:04 PM PDT (9/1)
Length of Visible Light 14h 19m
Length of Day
13h 17m
Tomorrow will be 3m 9s shorter.
Waxing Crescent, 45% of the Moon is Illuminated
Today
Waxing Crescent
Sep 2
First Quarter
Sep 8
Full
Sep 15
Last Quarter
Sep 24
New

Today's Extremes

State Highs State Lows

Community

WunderPhotos

Upload Photos

1,749,475 photos uploaded!

Nearby

Air Quality

  Air Quality AQ Index Pollutant
Yesterday Good
PM2.5
Current Good
PM2.5
Monday Good
PM2.5
Tuesday Good
PM2.5

Snow Depth

Station Depth Elevation
Hemlock Butte 0 in 5810 ft
Moscow Mountain 0 in 4700 ft
Mica Creek 0 in 4750 ft
Savage Pass 1 in 6170 ft
West Branch 0 in 5560 ft

Earthquake Activity

City Distance Mag. Time & Date
No recent earthquake activity has been reported nearby.
Minimum magnitude displayed is 2.5.

Coastal Water Temperatures

Place Temperature
No Stations Reporting

Nearby Weather Stations